Lerwick, United Kingdom
Current Conditions -  °F | °C
As of 3:50 PM on Thursday 30 Oct 2014 (Local Time) from EGPB Reporting Station
Light Rain Light Rain  
Wind Chill:   Ceiling: 1400
Heat Index:   Visibility: 5mi
Dew Point:   Wind: 23mph
Humidity: 93%   Direction: 100°E
Pressure: 29.94"   Gusts: NA
Location:  60.15°N, 1.15°W
Report Text: EGPB 301550Z 10020KT 8000 -RA SCT008 BKN014 08/07 Q1014 TEMPO BKN009
Loading
Personal Weather Stations






























Interactive Weather Map
Tropical Storm Tracking
New forecast layout! Learn more

10-Day Weather Forecast

Advertisements
Track Severe Weather on mobile